Time;durP1;ratioP1;P1;durP2;ratioP2;P2;SDS_P1;SDS_P2;PMS_P1;PMS_P2;Temp;Humidity;BMP_temperature;BMP_pressure;BME280_temperature;BME280_humidity;BME280_pressure;Samples;Min_cycle;Max_cycle;Signal;HPM_P1;HPM_P2
2024/03/16 00:00:50;;;;;;;;;0.00;0.00;;;;;16.92;100.00;101266.94;6264814;22;28424;-86
2024/03/16 00:03:15;;;;;;;;;0.00;0.00;;;;;17.00;100.00;101277.91;6290702;22;40028;-85
2024/03/16 00:05:47;;;;;;;;;0.00;0.00;;;;;16.86;100.00;101282.13;6291717;22;38019;-84
2024/03/16 00:08:12;;;;;;;;;0.00;0.00;;;;;16.88;100.00;101275.84;6264636;22;28535;-85
2024/03/16 00:10:37;;;;;;;;;0.00;0.00;;;;;16.84;100.00;101274.31;6263674;22;42201;-85
2024/03/16 00:13:11;;;;;;;;;0.00;0.00;;;;;16.67;100.00;101280.31;6264116;22;43343;-86
2024/03/16 00:15:53;;;;;;;;;0.00;0.00;;;;;16.70;100.00;101284.59;6292009;22;28526;-87
2024/03/16 00:18:24;;;;;;;;;0.00;0.00;;;;;16.71;100.00;101279.25;6265228;22;28604;-86
2024/03/16 00:20:50;;;;;;;;;0.50;0.50;;;;;16.56;100.00;101279.94;6290489;22;36381;-88
2024/03/16 00:23:16;;;;;;;;;0.00;0.00;;;;;16.72;100.00;101293.25;6264142;22;41127;-87
2024/03/16 00:25:50;;;;;;;;;0.00;0.00;;;;;16.76;100.00;101289.56;6264814;22;28570;-87
2024/03/16 00:28:16;;;;;;;;;0.00;0.00;;;;;16.81;100.00;101301.56;6265217;22;28436;-87
2024/03/16 00:30:44;;;;;;;;;0.00;0.00;;;;;16.94;100.00;101295.78;6264716;22;28372;-87
2024/03/16 00:33:19;;;;;;;;;0.00;0.00;;;;;16.69;100.00;101296.00;6265840;22;28459;-88
2024/03/16 00:35:50;;;;;;;;;0.00;0.00;;;;;16.83;100.00;101302.38;6240108;22;28328;-87
2024/03/16 00:38:17;;;;;;;;;0.00;0.00;;;;;16.75;100.00;101293.09;6264945;22;28486;-88
2024/03/16 00:40:48;;;;;;;;;0.00;0.00;;;;;16.91;100.00;101295.91;6262060;22;28412;-88
2024/03/16 00:43:17;;;;;;;;;0.00;0.00;;;;;16.73;100.00;101301.03;6265302;22;28511;-86
2024/03/16 00:45:46;;;;;;;;;0.00;0.00;;;;;16.79;100.00;101298.16;6262850;22;28314;-86
2024/03/16 00:48:12;;;;;;;;;0.00;0.00;;;;;16.75;100.00;101303.63;6265449;22;29185;-88
2024/03/16 00:50:47;;;;;;;;;0.00;0.00;;;;;16.69;100.00;101304.75;6265545;22;29035;-87
2024/03/16 00:53:18;;;;;;;;;0.00;0.00;;;;;16.73;100.00;101308.09;6292674;22;28385;-86
2024/03/16 00:55:43;;;;;;;;;0.00;0.00;;;;;16.87;100.00;101321.50;6291845;22;28520;-88
2024/03/16 00:58:27;;;;;;;;;0.00;0.00;;;;;16.84;100.00;101329.50;6292827;22;37743;-93
2024/03/16 01:01:00;;;;;;;;;0.00;0.00;;;;;16.88;100.00;101332.84;6264705;22;31854;-87
2024/03/16 01:03:25;;;;;;;;;0.00;0.00;;;;;16.90;100.00;101328.38;6265283;22;28831;-87
2024/03/16 01:05:58;;;;;;;;;0.00;0.00;;;;;16.70;100.00;101340.63;6264987;22;28404;-86
2024/03/16 01:08:23;;;;;;;;;0.00;0.00;;;;;16.87;100.00;101333.81;6292161;22;28739;-88
2024/03/16 01:10:58;;;;;;;;;0.00;0.00;;;;;17.14;100.00;101343.03;6265166;22;30535;-87
2024/03/16 01:13:29;;;;;;;;;0.00;0.00;;;;;16.92;100.00;101344.94;6264099;22;28581;-87
2024/03/16 01:16:01;;;;;;;;;0.00;0.00;;;;;17.12;100.00;101351.91;6264374;22;37266;-87
2024/03/16 01:18:41;;;;;;;;;0.00;0.00;;;;;17.01;100.00;101353.28;6292632;22;28789;-88
2024/03/16 01:21:13;;;;;;;;;0.00;0.00;;;;;16.96;100.00;101365.78;6259155;22;28729;-86
2024/03/16 01:23:45;;;;;;;;;0.00;0.00;;;;;16.85;100.00;101359.31;6260328;22;28391;-87
2024/03/16 01:26:20;;;;;;;;;0.00;0.00;;;;;16.95;100.00;101361.44;6261867;22;28731;-86
2024/03/16 01:28:51;;;;;;;;;0.00;0.00;;;;;16.92;100.00;101360.72;6233452;22;28448;-87
2024/03/16 01:31:22;;;;;;;;;0.00;0.00;;;;;16.67;100.00;101367.06;6259280;22;36395;-86
2024/03/16 01:33:54;;;;;;;;;0.00;0.00;;;;;16.83;100.00;101376.00;6259356;22;28672;-87
2024/03/16 01:36:23;;;;;;;;;0.00;0.00;;;;;16.46;100.00;101371.47;6259300;22;46621;-86
2024/03/16 01:38:49;;;;;;;;;0.00;0.00;;;;;16.52;100.00;101379.09;6260439;22;28323;-86
2024/03/16 01:41:14;;;;;;;;;0.00;0.00;;;;;16.36;100.00;101385.91;6259787;22;29088;-88
2024/03/16 01:43:47;;;;;;;;;0.00;0.00;;;;;16.66;100.00;101381.13;6258930;22;28373;-87
2024/03/16 01:46:16;;;;;;;;;0.00;0.00;;;;;16.80;100.00;101385.75;6259714;22;28350;-86
2024/03/16 01:48:45;;;;;;;;;0.00;0.00;;;;;16.83;100.00;101386.50;6260460;22;28496;-87
2024/03/16 01:51:26;;;;;;;;;0.00;0.00;;;;;16.63;100.00;101391.78;6259464;22;29194;-85
2024/03/16 01:53:55;;;;;;;;;0.00;0.00;;;;;16.50;100.00;101391.44;6260019;22;28310;-86
2024/03/16 01:56:20;;;;;;;;;0.00;0.00;;;;;16.43;100.00;101395.25;6258827;22;41632;-87
2024/03/16 01:58:49;;;;;;;;;0.00;0.00;;;;;16.41;100.00;101391.84;6259611;22;28523;-86
2024/03/16 02:01:14;;;;;;;;;0.00;0.00;;;;;16.37;100.00;101392.91;6259942;22;31939;-87
2024/03/16 02:03:46;;;;;;;;;0.00;0.00;;;;;16.48;100.00;101395.91;6234095;22;36543;-87
2024/03/16 02:06:15;;;;;;;;;0.00;0.00;;;;;16.63;100.00;101392.63;6260051;22;28280;-87
2024/03/16 02:08:40;;;;;;;;;0.00;0.00;;;;;16.61;100.00;101397.09;6233193;22;28364;-86
2024/03/16 02:11:09;;;;;;;;;0.00;0.00;;;;;16.61;100.00;101396.25;6260551;22;28760;-87
2024/03/16 02:13:37;;;;;;;;;0.00;0.00;;;;;16.73;100.00;101406.19;6233805;22;40496;-87
2024/03/16 02:16:05;;;;;;;;;0.00;0.00;;;;;16.64;100.00;101401.34;6259486;22;34481;-87
2024/03/16 02:18:37;;;;;;;;;0.00;0.00;;;;;16.71;100.00;101396.69;6257475;22;27908;-88
2024/03/16 02:21:28;;;;;;;;;0.00;0.00;;;;;16.57;100.00;101405.19;6233351;22;47092;-87
2024/03/16 02:23:57;;;;;;;;;0.00;0.00;;;;;16.48;100.00;101402.97;6261131;22;28436;-88
2024/03/16 02:26:23;;;;;;;;;0.00;0.00;;;;;16.47;100.00;101403.88;6259521;22;28380;-88
2024/03/16 02:28:48;;;;;;;;;0.00;0.00;;;;;16.49;100.00;101409.91;6262116;22;28260;-87
2024/03/16 02:31:13;;;;;;;;;0.00;0.00;;;;;16.47;100.00;101409.13;6233436;22;46049;-88
2024/03/16 02:33:45;;;;;;;;;0.00;0.00;;;;;16.45;100.00;101412.69;6260568;22;28384;-86
2024/03/16 02:36:18;;;;;;;;;0.00;0.00;;;;;16.46;100.00;101421.41;6260782;22;28447;-87
2024/03/16 02:38:46;;;;;;;;;0.00;0.00;;;;;16.54;100.00;101416.66;6261650;22;28575;-87
2024/03/16 02:41:35;;;;;;;;;0.00;0.00;;;;;16.48;100.00;101418.72;6260217;22;30546;-87
2024/03/16 02:44:00;;;;;;;;;0.00;0.00;;;;;16.48;100.00;101418.72;6262656;22;28393;-86
2024/03/16 02:46:29;;;;;;;;;0.00;0.00;;;;;16.50;100.00;101420.34;6256331;22;27877;-86
2024/03/16 02:49:00;;;;;;;;;0.00;0.00;;;;;16.34;100.00;101417.50;6260032;22;40880;-86
2024/03/16 02:51:32;;;;;;;;;0.00;0.00;;;;;16.34;100.00;101414.03;6262065;22;28616;-86
2024/03/16 02:54:00;;;;;;;;;0.00;0.00;;;;;16.33;100.00;101418.44;6261565;22;28502;-88
2024/03/16 02:56:28;;;;;;;;;0.00;0.00;;;;;16.43;100.00;101430.25;6261983;22;38346;-86
2024/03/16 02:58:54;;;;;;;;;0.00;0.00;;;;;16.44;100.00;101431.97;6261854;22;34561;-86
2024/03/16 03:01:25;;;;;;;;;0.00;0.00;;;;;16.48;100.00;101442.38;6261840;22;36267;-86
2024/03/16 03:03:57;;;;;;;;;0.00;0.00;;;;;16.48;100.00;101440.59;6260701;22;40131;-86
2024/03/16 03:06:25;;;;;;;;;0.00;0.00;;;;;16.51;100.00;101443.09;6261350;22;28525;-86
2024/03/16 03:08:53;;;;;;;;;0.00;0.00;;;;;16.55;100.00;101443.81;6261738;22;28317;-86
2024/03/16 03:11:22;;;;;;;;;0.00;0.00;;;;;16.61;100.00;101447.03;6262366;22;29078;-87
2024/03/16 03:13:47;;;;;;;;;0.00;0.00;;;;;16.56;100.00;101451.63;6261395;22;28273;-87
2024/03/16 03:16:24;;;;;;;;;0.00;0.00;;;;;16.45;100.00;101457.34;6287193;22;28548;-87
2024/03/16 03:18:56;;;;;;;;;0.00;0.00;;;;;16.54;100.00;101471.00;6260728;22;28226;-87
2024/03/16 03:21:29;;;;;;;;;0.00;0.00;;;;;16.53;100.00;101451.78;6285288;22;29131;-88
2024/03/16 03:23:54;;;;;;;;;0.00;0.00;;;;;16.50;100.00;101457.16;6288417;22;27881;-87
2024/03/16 03:26:23;;;;;;;;;0.00;0.00;;;;;16.45;100.00;101461.72;6266269;22;28444;-88
2024/03/16 03:28:49;;;;;;;;;0.00;0.00;;;;;16.45;100.00;101464.34;6266203;22;28516;-88
2024/03/16 03:31:14;;;;;;;;;0.00;0.00;;;;;16.52;100.00;101476.31;6265450;22;30300;-87
2024/03/16 03:33:58;;;;;;;;;0.00;0.00;;;;;16.40;100.00;101482.97;6265760;22;28306;-86
2024/03/16 03:36:43;;;;;;;;;0.00;0.00;;;;;16.50;100.00;101479.94;6293163;22;28269;-85
2024/03/16 03:39:15;;;;;;;;;0.00;0.00;;;;;16.40;100.00;101485.59;6292393;22;28287;-88
2024/03/16 03:41:41;;;;;;;;;0.00;0.00;;;;;16.30;100.00;101486.03;6266804;22;28370;-87
2024/03/16 03:44:20;;;;;;;;;0.00;0.00;;;;;16.02;100.00;101492.38;6240358;22;28492;-85
2024/03/16 03:46:52;;;;;;;;;0.00;0.00;;;;;16.25;100.00;101491.44;6291868;22;28269;-87
2024/03/16 03:49:32;;;;;;;;;0.00;0.00;;;;;16.36;100.00;101483.13;6265635;22;28542;-86
2024/03/16 03:52:04;;;;;;;;;0.00;0.00;;;;;16.42;100.00;101493.41;6263826;22;29154;-89
2024/03/16 03:54:34;;;;;;;;;0.00;0.00;;;;;16.27;100.00;101494.91;6265180;22;28248;-86
2024/03/16 03:56:59;;;;;;;;;0.00;0.00;;;;;16.26;100.00;101498.44;6265695;22;28512;-88
2024/03/16 03:59:30;;;;;;;;;0.00;0.00;;;;;16.16;100.00;101508.47;6291986;22;28405;-86
2024/03/16 04:01:58;;;;;;;;;0.00;0.00;;;;;16.41;100.00;101496.94;6238699;22;50803;-87
2024/03/16 04:04:24;;;;;;;;;0.00;0.00;;;;;16.47;100.00;101519.47;6291910;22;40400;-87
2024/03/16 04:06:49;;;;;;;;;0.00;0.00;;;;;16.13;100.00;101512.97;6292043;22;28456;-87
2024/03/16 04:09:14;;;;;;;;;0.00;0.00;;;;;16.26;100.00;101517.66;6265779;22;32455;-87
2024/03/16 04:11:43;;;;;;;;;0.00;0.00;;;;;16.29;100.00;101521.94;6265676;22;29353;-86
2024/03/16 04:14:08;;;;;;;;;0.00;0.00;;;;;16.28;100.00;101527.25;6265086;22;27933;-87
2024/03/16 04:16:47;;;;;;;;;0.00;0.00;;;;;16.41;100.00;101518.81;6290943;22;36213;-86
2024/03/16 04:19:19;;;;;;;;;0.00;0.00;;;;;16.29;100.00;101523.69;6265697;22;28766;-87
2024/03/16 04:21:54;;;;;;;;;0.00;0.00;;;;;16.41;100.00;101531.94;6258881;22;42683;-87
2024/03/16 04:24:19;;;;;;;;;0.00;0.00;;;;;16.51;100.00;101524.56;6260194;22;28388;-86
2024/03/16 04:26:51;;;;;;;;;0.00;0.00;;;;;16.48;100.00;101531.72;6261725;22;45423;-86
2024/03/16 04:29:19;;;;;;;;;0.00;0.00;;;;;16.37;100.00;101540.03;6262222;22;38490;-86
2024/03/16 04:31:56;;;;;;;;;0.00;0.00;;;;;16.37;100.00;101540.88;6258335;22;30005;-87
2024/03/16 04:34:28;;;;;;;;;0.00;0.00;;;;;16.32;100.00;101541.97;6285896;22;28814;-86
2024/03/16 04:36:54;;;;;;;;;0.00;0.00;;;;;16.35;100.00;101539.25;6258909;22;28565;-87
2024/03/16 04:39:25;;;;;;;;;0.00;0.00;;;;;16.31;100.00;101543.75;6234118;22;28519;-85
2024/03/16 04:41:54;;;;;;;;;0.00;0.00;;;;;16.34;100.00;101555.91;6260615;22;30035;-87
2024/03/16 04:44:22;;;;;;;;;0.00;0.00;;;;;16.37;100.00;101545.28;6261797;22;28265;-87
2024/03/16 04:46:50;;;;;;;;;0.00;0.00;;;;;16.22;100.00;101573.03;6234158;22;42836;-87
2024/03/16 04:49:19;;;;;;;;;0.00;0.00;;;;;16.55;100.00;101564.72;6260399;22;28518;-87
2024/03/16 04:51:44;;;;;;;;;0.00;0.00;;;;;16.75;100.00;101562.13;6259954;22;28712;-86
2024/03/16 04:54:13;;;;;;;;;0.00;0.00;;;;;16.68;100.00;101573.81;6233938;22;38234;-87
2024/03/16 04:56:44;;;;;;;;;0.00;0.00;;;;;16.71;100.00;101576.28;6261687;22;28619;-86
2024/03/16 04:59:13;;;;;;;;;0.00;0.00;;;;;16.73;100.00;101570.97;6259044;22;37900;-87
2024/03/16 05:01:45;;;;;;;;;0.00;0.00;;;;;16.69;100.00;101575.50;6259514;22;28396;-86
2024/03/16 05:04:11;;;;;;;;;0.00;0.00;;;;;16.68;100.00;101578.19;6285468;22;28266;-86
2024/03/16 05:06:36;;;;;;;;;0.00;0.00;;;;;16.62;100.00;101577.53;6234218;22;28511;-87
2024/03/16 05:09:06;;;;;;;;;0.00;0.00;;;;;16.60;100.00;101583.75;6261543;22;28553;-87
2024/03/16 05:11:37;;;;;;;;;0.00;0.00;;;;;16.61;100.00;101590.75;6260608;22;29278;-86
2024/03/16 05:14:09;;;;;;;;;0.00;0.00;;;;;16.51;100.00;101577.13;6261276;22;28399;-86
2024/03/16 05:16:41;;;;;;;;;0.00;0.00;;;;;16.32;100.00;101586.66;6261623;22;28495;-86
2024/03/16 05:19:06;;;;;;;;;0.00;0.00;;;;;16.41;100.00;101596.78;6259131;22;28354;-87
2024/03/16 05:21:33;;;;;;;;;0.00;0.00;;;;;16.32;100.00;101605.88;6286697;22;28346;-86
2024/03/16 05:23:59;;;;;;;;;0.00;0.00;;;;;16.26;100.00;101611.38;6292244;22;27953;-86
2024/03/16 05:26:34;;;;;;;;;0.00;0.00;;;;;16.28;100.00;101624.47;6263223;22;28242;-88
2024/03/16 05:29:07;;;;;;;;;0.00;0.00;;;;;16.30;100.00;101620.00;6292199;22;28609;-87
2024/03/16 05:31:41;;;;;;;;;0.00;0.00;;;;;16.33;100.00;101619.91;6266043;22;28452;-86
2024/03/16 05:34:06;;;;;;;;;0.00;0.00;;;;;16.41;100.00;101620.44;6263693;22;28318;-87
2024/03/16 05:36:32;;;;;;;;;0.00;0.00;;;;;16.38;100.00;101618.78;6265219;22;28651;-86
2024/03/16 05:39:03;;;;;;;;;0.00;0.00;;;;;16.30;100.00;101630.50;6265227;22;28306;-88
2024/03/16 05:41:35;;;;;;;;;0.00;0.00;;;;;16.24;100.00;101628.97;6264145;22;44394;-86
2024/03/16 05:44:06;;;;;;;;;0.00;0.00;;;;;16.30;100.00;101638.41;6264636;22;28519;-87
2024/03/16 05:46:31;;;;;;;;;0.00;0.00;;;;;16.29;100.00;101632.28;6239635;22;28317;-86
2024/03/16 05:48:57;;;;;;;;;0.00;0.00;;;;;16.21;100.00;101632.59;6264189;22;28565;-86
2024/03/16 05:51:28;;;;;;;;;0.00;0.00;;;;;16.39;100.00;101630.16;6264137;22;44104;-86
2024/03/16 05:54:03;;;;;;;;;0.00;0.00;;;;;16.29;100.00;101644.53;6239360;22;28497;-87
2024/03/16 05:56:32;;;;;;;;;0.00;0.00;;;;;16.10;100.00;101641.78;6266533;22;28563;-87
2024/03/16 05:58:58;;;;;;;;;0.00;0.00;;;;;16.03;100.00;101634.13;6267187;22;28519;-87
2024/03/16 06:01:26;;;;;;;;;0.00;0.00;;;;;16.03;100.00;101647.25;6293575;22;28517;-88
2024/03/16 06:03:55;;;;;;;;;0.00;0.00;;;;;16.05;100.00;101645.44;6290259;22;28533;-87
2024/03/16 06:06:21;;;;;;;;;0.00;0.00;;;;;16.03;100.00;101651.66;6266162;22;28485;-87
2024/03/16 06:08:55;;;;;;;;;0.00;0.00;;;;;16.06;100.00;101652.41;6266302;22;28566;-86
2024/03/16 06:11:24;;;;;;;;;0.00;0.00;;;;;16.11;100.00;101659.25;6266444;22;28444;-87
2024/03/16 06:14:17;;;;;;;;;0.00;0.00;;;;;16.28;100.00;101671.75;6265947;22;28243;-86
2024/03/16 06:16:42;;;;;;;;;0.00;0.00;;;;;16.32;100.00;101682.06;6266420;22;28431;-87
2024/03/16 06:19:14;;;;;;;;;0.00;0.00;;;;;16.32;100.00;101678.59;6293203;22;28278;-86
2024/03/16 06:21:45;;;;;;;;;0.00;0.00;;;;;16.31;100.00;101676.91;6260397;22;29405;-87
2024/03/16 06:24:14;;;;;;;;;0.00;0.00;;;;;16.00;100.00;101692.00;6262527;22;28312;-87
2024/03/16 06:26:49;;;;;;;;;0.00;0.00;;;;;15.92;100.00;101687.97;6261885;22;28401;-85
2024/03/16 06:29:15;;;;;;;;;0.00;0.00;;;;;16.06;100.00;101686.56;6261518;22;28341;-87
2024/03/16 06:31:42;;;;;;;;;0.00;0.00;;;;;15.99;100.00;101708.69;6259322;22;28498;-86
2024/03/16 06:34:11;;;;;;;;;0.00;0.00;;;;;16.10;100.00;101712.69;6260861;22;28410;-87
2024/03/16 06:36:36;;;;;;;;;0.00;0.00;;;;;16.22;100.00;101726.22;6260787;22;31297;-87
2024/03/16 06:39:10;;;;;;;;;0.00;0.00;;;;;16.06;100.00;101725.94;6262066;22;28483;-86
2024/03/16 06:41:35;;;;;;;;;0.00;0.00;;;;;16.27;100.00;101733.94;6260442;22;28563;-86
2024/03/16 06:44:02;;;;;;;;;0.00;0.00;;;;;16.20;100.00;101735.09;6262099;22;27811;-86
2024/03/16 06:46:28;;;;;;;;;0.00;0.00;;;;;16.15;100.00;101744.91;6260641;22;28464;-86
2024/03/16 06:49:21;;;;;;;;;;;;;;;;;;;;;
2024/03/16 06:52:24;;;;;;;;;0.00;0.00;;;;;16.16;100.00;101736.97;6255390;22;58081;-90
2024/03/16 06:55:03;;;;;;;;;0.00;0.00;;;;;16.13;100.00;101747.56;6258933;22;28433;-88
2024/03/16 06:57:40;;;;;;;;;0.00;0.00;;;;;15.98;100.00;101740.25;6263194;22;28396;-89
2024/03/16 07:00:08;;;;;;;;;0.00;0.00;;;;;16.12;100.00;101742.38;6257314;22;29015;-88
2024/03/16 07:02:40;;;;;;;;;0.00;0.00;;;;;16.29;100.00;101740.00;6257572;22;28339;-88
2024/03/16 07:05:07;;;;;;;;;0.00;0.00;;;;;16.11;100.00;101745.94;6261576;22;28487;-89
2024/03/16 07:07:46;;;;;;;;;0.00;0.00;;;;;16.35;100.00;101741.56;6258531;22;28361;-90
2024/03/16 07:16:48;;;;;;;;;0.00;0.00;;;;;16.31;100.00;101751.31;6201145;23;27918;-91
2024/03/16 07:19:45;;;;;;;;;0.00;0.00;;;;;16.37;100.00;101756.31;6174623;23;28366;-89
2024/03/16 07:23:06;;;;;;;;;;;;;;;;;;;;;
2024/03/16 07:36:05;;;;;;;;;0.00;0.00;;;;;16.49;100.00;101780.44;6150857;23;28371;-91
2024/03/16 07:42:49;;;;;;;;;0.00;0.00;;;;;16.58;100.00;101793.25;5995168;23;28426;-89
2024/03/16 07:45:15;;;;;;;;;0.00;0.00;;;;;16.76;100.00;101797.81;5992476;23;28493;-88
2024/03/16 07:47:40;;;;;;;;;0.00;0.00;;;;;16.56;100.00;101806.44;5971059;23;28348;-87
2024/03/16 07:50:38;;;;;;;;;0.00;0.00;;;;;16.64;100.00;101801.75;5993467;23;28594;-88
2024/03/16 07:53:06;;;;;;;;;0.00;0.00;;;;;16.96;100.00;101804.97;5937392;24;28399;-92
2024/03/16 07:55:34;;;;;;;;;0.00;0.00;;;;;17.09;100.00;101823.75;5914362;24;27856;-89
2024/03/16 07:58:03;;;;;;;;;0.00;0.00;;;;;17.21;100.00;101827.69;5891311;24;31807;-85
2024/03/16 08:00:32;;;;;;;;;0.00;0.00;;;;;17.22;100.00;101848.66;5935587;24;28421;-85
2024/03/16 08:02:58;;;;;;;;;0.00;0.00;;;;;17.28;100.00;101841.47;5936913;24;28391;-86
2024/03/16 08:05:32;;;;;;;;;0.00;0.00;;;;;17.45;100.00;101841.63;5936447;24;40234;-84
2024/03/16 08:07:57;;;;;;;;;0.00;0.00;;;;;17.53;100.00;101844.81;5937121;24;28569;-83
2024/03/16 08:10:23;;;;;;;;;0.00;0.00;;;;;17.39;100.00;101839.25;5946775;23;40627;-83
2024/03/16 08:12:51;;;;;;;;;0.00;0.00;;;;;17.47;100.00;101847.69;5964003;23;49489;-83
2024/03/16 08:15:17;;;;;;;;;0.00;0.00;;;;;17.61;100.00;101849.78;5964325;23;28345;-82
2024/03/16 08:17:43;;;;;;;;;0.00;0.00;;;;;17.53;100.00;101844.81;5969706;23;28520;-84
2024/03/16 08:20:11;;;;;;;;;0.00;0.00;;;;;17.57;100.00;101859.56;6081328;23;28466;-82
2024/03/16 08:22:37;;;;;;;;;0.00;0.00;;;;;17.60;100.00;101859.44;6107539;23;28360;-83
2024/03/16 08:25:06;;;;;;;;;0.00;0.00;;;;;17.61;100.00;101860.31;6109325;23;28341;-85
2024/03/16 08:27:35;;;;;;;;;0.00;0.00;;;;;17.66;100.00;101873.28;6108862;23;28508;-85
2024/03/16 08:30:03;;;;;;;;;0.00;0.00;;;;;17.59;100.00;101870.06;6197649;22;28804;-85
2024/03/16 08:32:29;;;;;;;;;0.00;0.00;;;;;17.51;100.00;101870.31;6265636;22;28354;-82
2024/03/16 08:34:54;;;;;;;;;0.00;0.00;;;;;17.42;100.00;101866.31;6291756;22;28471;-82
2024/03/16 08:37:22;;;;;;;;;0.00;0.00;;;;;17.52;100.00;101877.31;6292573;22;28376;-82
2024/03/16 08:39:48;;;;;;;;;0.00;0.00;;;;;17.59;100.00;101881.44;6292734;22;28416;-81
2024/03/16 08:42:15;;;;;;;;;0.00;0.00;;;;;17.69;100.00;101888.97;6289929;22;35054;-83
2024/03/16 08:44:43;;;;;;;;;0.00;0.00;;;;;17.83;100.00;101888.38;6292756;22;27818;-85
2024/03/16 08:47:15;;;;;;;;;0.00;0.00;;;;;17.96;100.00;101876.47;6265546;22;28321;-84
2024/03/16 08:49:43;;;;;;;;;0.00;0.00;;;;;18.11;100.00;101893.41;6291076;22;30095;-84
2024/03/16 08:52:12;;;;;;;;;0.00;0.00;;;;;18.19;100.00;101894.78;6291899;22;28269;-85
2024/03/16 08:54:40;;;;;;;;;0.00;0.00;;;;;18.29;100.00;101895.22;6263443;22;28587;-89
2024/03/16 08:57:09;;;;;;;;;0.00;0.00;;;;;18.44;100.00;101911.31;6292714;22;28557;-85
2024/03/16 08:59:36;;;;;;;;;0.00;0.00;;;;;18.54;100.00;101910.00;6239902;22;29667;-83
2024/03/16 09:02:07;;;;;;;;;0.00;0.00;;;;;18.47;100.00;101919.94;6290579;22;28437;-85
2024/03/16 09:04:32;;;;;;;;;0.00;0.00;;;;;18.48;100.00;101918.16;6290673;22;28337;-84
2024/03/16 09:06:58;;;;;;;;;0.00;0.00;;;;;18.53;100.00;101918.81;6238543;22;48508;-87
2024/03/16 09:09:27;;;;;;;;;0.00;0.00;;;;;18.70;100.00;101921.59;6290384;22;44584;-86
2024/03/16 09:11:59;;;;;;;;;0.00;0.00;;;;;18.81;100.00;101910.56;6254114;22;28380;-85
2024/03/16 09:14:32;;;;;;;;;0.00;0.00;;;;;18.94;100.00;101917.03;6265217;22;47393;-87
2024/03/16 09:16:58;;;;;;;;;0.00;0.00;;;;;18.86;100.00;101934.97;6289610;22;28447;-83
2024/03/16 09:19:23;;;;;;;;;0.00;0.00;;;;;18.97;100.00;101939.78;6293083;22;28921;-83
2024/03/16 09:21:49;;;;;;;;;0.00;0.00;;;;;18.66;100.00;101940.25;6292577;22;28485;-82
2024/03/16 09:24:14;;;;;;;;;0.00;0.00;;;;;18.58;100.00;101930.03;6265909;22;28449;-84
2024/03/16 09:26:42;;;;;;;;;0.25;0.00;;;;;18.50;100.00;101937.44;6292215;22;28336;-84
2024/03/16 09:29:09;;;;;;;;;0.00;0.00;;;;;18.51;100.00;101928.59;6263214;22;28613;-85
2024/03/16 09:31:34;;;;;;;;;0.00;0.00;;;;;18.33;100.00;101946.03;6292341;22;28435;-84
2024/03/16 09:34:00;;;;;;;;;0.00;0.00;;;;;18.26;100.00;101949.88;6265494;22;28351;-85
2024/03/16 09:36:25;;;;;;;;;0.00;0.00;;;;;18.23;100.00;101942.94;6239730;22;28536;-84
2024/03/16 09:38:51;;;;;;;;;0.00;0.00;;;;;18.29;100.00;101941.81;6265117;22;29392;-84
2024/03/16 09:41:20;;;;;;;;;0.00;0.00;;;;;18.38;100.00;101934.38;6264654;22;28442;-83
2024/03/16 09:43:48;;;;;;;;;0.00;0.00;;;;;18.44;100.00;101942.94;6265697;22;28410;-82
2024/03/16 09:46:14;;;;;;;;;0.00;0.00;;;;;18.49;100.00;101939.19;6291999;22;28534;-84
2024/03/16 09:48:44;;;;;;;;;0.00;0.00;;;;;18.66;100.00;101945.53;6265557;22;28410;-89
2024/03/16 09:51:24;;;;;;;;;0.00;0.00;;;;;18.80;100.00;101937.88;6238566;22;48003;-85
2024/03/16 09:53:57;;;;;;;;;0.00;0.00;;;;;19.03;100.00;101941.28;6292665;22;28370;-89
2024/03/16 09:56:25;;;;;;;;;0.50;0.50;;;;;18.97;100.00;101942.41;6265273;22;28504;-89
2024/03/16 10:01:34;;;;;;;;;0.00;0.00;;;;;19.18;100.00;101950.28;6321537;22;55776;-84
2024/03/16 10:04:04;;;;;;;;;0.00;0.00;;;;;19.42;100.00;101948.28;6292830;22;27886;-87
2024/03/16 10:06:37;;;;;;;;;0.00;0.00;;;;;19.46;100.00;101950.69;6319003;22;28570;-86
2024/03/16 10:09:10;;;;;;;;;0.00;0.00;;;;;19.59;100.00;101950.13;6295439;22;29694;-84
2024/03/16 10:12:00;;;;;;;;;0.00;0.00;;;;;19.72;100.00;101951.25;6324023;22;28284;-87
2024/03/16 10:14:25;;;;;;;;;0.00;0.00;;;;;19.83;100.00;101953.41;6301023;22;28573;-86
2024/03/16 10:16:55;;;;;;;;;0.00;0.00;;;;;19.79;100.00;101959.78;6294771;22;30865;-85
2024/03/16 10:19:21;;;;;;;;;0.00;0.00;;;;;19.61;100.00;101962.31;6293566;22;29890;-85
2024/03/16 10:21:55;;;;;;;;;0.00;0.00;;;;;19.83;100.00;101966.63;6295584;22;28296;-88
2024/03/16 10:24:31;;;;;;;;;0.00;0.00;;;;;19.69;100.00;101967.25;6268360;22;28341;-86
2024/03/16 10:26:57;;;;;;;;;0.00;0.00;;;;;19.64;100.00;101956.06;6295477;22;28592;-87
2024/03/16 10:29:31;;;;;;;;;0.00;0.00;;;;;19.70;100.00;101963.66;6295138;22;30526;-85
2024/03/16 10:32:05;;;;;;;;;0.00;0.00;;;;;19.84;100.00;101963.91;6322984;22;28415;-85
2024/03/16 10:34:34;;;;;;;;;0.00;0.00;;;;;19.81;100.00;101964.03;6322588;22;28349;-88
2024/03/16 10:37:07;;;;;;;;;0.00;0.00;;;;;19.74;100.00;101965.25;6295166;22;28567;-87
2024/03/16 10:39:42;;;;;;;;;0.00;0.00;;;;;19.70;100.00;101969.81;6295496;22;28587;-87
2024/03/16 10:42:15;;;;;;;;;0.00;0.00;;;;;19.91;100.00;101978.53;6323015;22;28485;-88
2024/03/16 10:44:46;;;;;;;;;0.00;0.00;;;;;19.99;100.00;101983.44;6296025;22;28595;-90
2024/03/16 10:47:14;;;;;;;;;0.00;0.00;;;;;20.21;100.00;101980.59;6296994;22;28609;-90
2024/03/16 10:49:42;;;;;;;;;0.00;0.00;;;;;20.28;100.00;101978.47;6292073;22;29173;-87
2024/03/16 10:52:24;;;;;;;;;0.00;0.00;;;;;20.23;100.00;101986.66;6325773;22;39690;-91
2024/03/16 10:54:53;;;;;;;;;0.00;0.00;;;;;19.99;100.00;101977.31;6271322;22;28282;-87
2024/03/16 11:00:44;;;;;;;;;0.00;0.00;;;;;20.21;100.00;101980.59;6320261;22;28299;-88
2024/03/16 11:03:36;;;;;;;;;0.00;0.00;;;;;20.15;100.00;101987.97;6268483;22;29816;-86
2024/03/16 11:06:41;;;;;;;;;0.00;0.00;;;;;19.83;100.00;101990.38;6322382;22;28305;-87
2024/03/16 11:09:32;;;;;;;;;0.00;0.00;;;;;20.16;100.00;101987.03;6228568;22;28389;-90
2024/03/16 11:16:27;;;;;;;;;0.00;0.00;;;;;20.76;100.00;101987.53;6112840;23;28335;-95
2024/03/16 11:19:07;;;;;;;;;0.00;0.00;;;;;21.48;100.00;101977.53;6109737;23;28328;-89
2024/03/16 11:24:35;;;;;;;;;0.00;0.00;;;;;21.85;100.00;101980.78;6317031;22;28534;-88
2024/03/16 11:27:16;;;;;;;;;0.00;0.00;;;;;22.06;100.00;101985.78;6297420;22;27853;-90
2024/03/16 11:30:03;;;;;;;;;0.00;0.00;;;;;22.47;100.00;101983.38;6238714;22;28609;-89
2024/03/16 11:33:20;;;;;;;;;0.00;0.00;;;;;22.82;100.00;101980.41;6270958;22;28382;-90
2024/03/16 11:35:27;;;;;;;;;0.00;0.00;;;;;22.86;100.00;101999.66;6250325;22;28447;-88
2024/03/16 11:38:00;;;;;;;;;0.00;0.00;;;;;22.86;100.00;102002.31;6235660;22;28327;-91
2024/03/16 11:40:28;;;;;;;;;0.00;0.00;;;;;23.61;100.00;102010.09;6236765;22;28432;-89
2024/03/16 11:43:00;;;;;;;;;0.00;0.00;;;;;24.61;100.00;102017.72;6238211;22;28484;-87
2024/03/16 11:46:15;;;;;;;;;0.00;0.00;;;;;25.92;100.00;102004.94;6298170;22;28317;-90
2024/03/16 12:00:12;;;;;;;;;0.00;0.00;;;;;30.10;95.81;102023.97;6228131;22;29486;-87
2024/03/16 12:03:20;;;;;;;;;0.00;0.00;;;;;31.00;93.98;102021.00;6179102;22;28461;-91
2024/03/16 12:05:46;;;;;;;;;0.00;0.00;;;;;31.22;98.39;102000.97;6228656;22;28514;-90
2024/03/16 12:08:15;;;;;;;;;0.00;0.00;;;;;30.82;94.80;102007.50;6154149;22;28541;-88
2024/03/16 12:11:09;;;;;;;;;0.00;0.00;;;;;29.74;72.36;102004.06;6203313;22;28258;-89
2024/03/16 12:13:51;;;;;;;;;;;;;;;;;;;;;
2024/03/16 12:16:17;;;;;;;;;0.00;0.00;;;;;28.09;68.02;102007.56;6069738;23;55500;-87
2024/03/16 12:18:48;;;;;;;;;0.00;0.00;;;;;28.85;79.90;102017.25;6145711;23;28445;-88
2024/03/16 12:21:17;;;;;;;;;0.00;0.00;;;;;30.00;82.59;102006.19;6147760;23;28517;-89
2024/03/16 12:27:14;;;;;;;;;0.00;0.00;;;;;32.12;55.95;102023.50;6021992;23;28406;-89
2024/03/16 12:29:51;;;;;;;;;0.00;0.00;;;;;33.53;70.95;102018.75;5978496;23;29850;-90